Questa, NM (87556)

4:46 AM MDT on May 05, 2015 (GMT -0600)
RAWS | | Change Station
CLOSE
Current Station
Personal Weather Station
Location: Questa, NM
Elevation: 7529 ft
Nearby Weather Stations

Elev 7529 ft 36.69 °N, 105.67 °W | Updated 57 minutes ago

Rain
Rain
41 °F
Feels Like 38 °F
N
4
Wind Variable Wind from WSW
Gusts 10.0 mph

Today
High -- | Low -- °F
--% Chance of Precip.
Yesterday
High -- | Low -- °F
Precip. -- in
6:04 AM 7:54 PM
Full, 98% visible
Pressure 29.99 in
Visibility 10.0 miles
Clouds Mostly Cloudy 3000 ft
Overcast 11000 ft
Windchill 38 °F
Dew Point 40 °F
Humidity 96%
Rainfall in
Snow Depth Not available.
UV 0 out of 12
Pollen 9.30 out of 12
Air Quality Not available.
Flu Activity Local Activity
METAR KSKX 051035Z AUTO 36009KT 10SM BKN030 OVC110 05/01 A2999 RMK AO1 P0001

More Conditions Fewer Conditions

Pressure 29.99 in
Visibility 10.0 miles
Clouds Mostly Cloudy 3000 ft
Overcast 11000 ft
Windchill 38 °F
Dew Point 40 °F
Humidity 96%
Rainfall in
Snow Depth Not available.
UV 0 out of 12
Pollen 9.30 out of 12
Air Quality Not available.
Flu Activity Local Activity
METAR KSKX 051035Z AUTO 36009KT 10SM BKN030 OVC110 05/01 A2999 RMK AO1 P0001

More Conditions Fewer Conditions

Nepal has a long way to go to dig out and rebuild from a devastating earthquake. We have teamed up with several charities and organizations to make contributing to the relief effort as easy as possible.
How you can help: Portlight Strategies | Red Cross
Nowcast | as of 4:14 am MDT on May 5, 2015

Scattered showers will continue across the northern mountains early this morning. Additional rainfall amounts through 6 am should generally be less than a tenth of an inch...though a few locales may see closer to a quarter of an inch. Elevations near and above 8500 feet may see a few snowflakes mixed in as well...though little...if any...snow will stick. Areas that will be affected include Angel Fire...Red River...Tres Piedras and Chama.

×

10-Day Weather Forecast

Almanac

Astronomy

May. 05, 2015 Rise Set
Actual Time
Civil Twilight
Nautical Twilight
Astronomical Twilight
Moon
Length of Visible Light
Length of Day
Tomorrow will be .
, % of the Moon is Illuminated

Today's Extremes

State Highs State Lows

Community

WunderPhotos

Upload Photos

1,818,828 photos uploaded!

WunderBlogs® & News

Nearby

Air Quality

  Air Quality AQ Index Pollutant
Not available.

Snow Depth

Station Depth Elevation

Earthquake Activity

City Distance Mag. Time & Date
Minimum magnitude displayed is 2.5.

Coastal Water Temperatures

Place Temperature

Stations

Nearby Weather Stations

Station Location Temp. Windchill Dew Point Humidity Wind Precip. Elev Updated Type